sensor_id;sensor_type;location;lat;lon;timestamp;P1;durP1;ratioP1;P2;durP2;ratioP2
75667;SDS011;64266;48.798;44.756;2024-01-30T00:03:12;16.30;;;6.50;;
75667;SDS011;64266;48.798;44.756;2024-01-30T00:08:16;18.33;;;7.28;;
75667;SDS011;64266;48.798;44.756;2024-01-30T00:13:19;19.65;;;8.10;;
75667;SDS011;64266;48.798;44.756;2024-01-30T00:18:22;23.23;;;8.77;;
75667;SDS011;64266;48.798;44.756;2024-01-30T00:23:26;26.75;;;10.00;;
75667;SDS011;64266;48.798;44.756;2024-01-30T00:28:31;36.10;;;11.68;;
75667;SDS011;64266;48.798;44.756;2024-01-30T00:33:34;32.20;;;12.82;;
75667;SDS011;64266;48.798;44.756;2024-01-30T00:38:39;34.45;;;12.77;;
75667;SDS011;64266;48.798;44.756;2024-01-30T00:43:43;35.58;;;12.88;;
75667;SDS011;64266;48.798;44.756;2024-01-30T00:48:48;34.42;;;13.18;;
75667;SDS011;64266;48.798;44.756;2024-01-30T00:53:51;42.17;;;13.93;;
75667;SDS011;64266;48.798;44.756;2024-01-30T00:58:54;35.58;;;13.10;;
75667;SDS011;64266;48.798;44.756;2024-01-30T01:03:58;37.72;;;13.48;;
75667;SDS011;64266;48.798;44.756;2024-01-30T01:09:01;34.92;;;13.02;;
75667;SDS011;64266;48.798;44.756;2024-01-30T01:14:06;30.65;;;11.80;;
75667;SDS011;64266;48.798;44.756;2024-01-30T01:19:09;30.35;;;10.85;;
75667;SDS011;64266;48.798;44.756;2024-01-30T01:24:12;28.08;;;10.82;;
75667;SDS011;64266;48.798;44.756;2024-01-30T01:29:16;28.38;;;10.73;;
75667;SDS011;64266;48.798;44.756;2024-01-30T01:34:19;28.58;;;10.85;;
75667;SDS011;64266;48.798;44.756;2024-01-30T01:39:22;24.88;;;9.18;;
75667;SDS011;64266;48.798;44.756;2024-01-30T01:44:28;23.70;;;9.43;;
75667;SDS011;64266;48.798;44.756;2024-01-30T01:49:30;23.70;;;8.77;;
75667;SDS011;64266;48.798;44.756;2024-01-30T01:54:33;21.55;;;8.90;;
75667;SDS011;64266;48.798;44.756;2024-01-30T01:59:37;22.48;;;8.80;;
75667;SDS011;64266;48.798;44.756;2024-01-30T02:04:40;19.50;;;7.95;;
75667;SDS011;64266;48.798;44.756;2024-01-30T02:09:43;24.13;;;8.52;;
75667;SDS011;64266;48.798;44.756;2024-01-30T02:14:47;18.25;;;7.60;;
75667;SDS011;64266;48.798;44.756;2024-01-30T02:19:52;19.02;;;7.90;;
75667;SDS011;64266;48.798;44.756;2024-01-30T02:24:56;18.50;;;8.07;;
75667;SDS011;64266;48.798;44.756;2024-01-30T02:29:59;16.52;;;7.10;;
75667;SDS011;64266;48.798;44.756;2024-01-30T02:35:05;19.10;;;6.88;;
75667;SDS011;64266;48.798;44.756;2024-01-30T02:40:08;13.43;;;5.57;;
75667;SDS011;64266;48.798;44.756;2024-01-30T02:45:12;18.13;;;6.15;;
75667;SDS011;64266;48.798;44.756;2024-01-30T02:50:15;14.52;;;5.57;;
75667;SDS011;64266;48.798;44.756;2024-01-30T02:55:19;17.58;;;5.38;;
75667;SDS011;64266;48.798;44.756;2024-01-30T03:00:23;15.45;;;5.00;;
75667;SDS011;64266;48.798;44.756;2024-01-30T03:05:26;11.85;;;5.07;;
75667;SDS011;64266;48.798;44.756;2024-01-30T03:10:29;13.63;;;5.57;;
75667;SDS011;64266;48.798;44.756;2024-01-30T03:15:32;13.75;;;6.13;;
75667;SDS011;64266;48.798;44.756;2024-01-30T03:20:36;17.98;;;7.40;;
75667;SDS011;64266;48.798;44.756;2024-01-30T03:25:39;20.65;;;8.27;;
75667;SDS011;64266;48.798;44.756;2024-01-30T03:30:41;16.73;;;8.48;;
75667;SDS011;64266;48.798;44.756;2024-01-30T03:35:45;21.20;;;9.75;;
75667;SDS011;64266;48.798;44.756;2024-01-30T03:40:48;18.70;;;8.52;;
75667;SDS011;64266;48.798;44.756;2024-01-30T03:45:51;22.83;;;9.15;;
75667;SDS011;64266;48.798;44.756;2024-01-30T03:50:54;22.30;;;9.25;;
75667;SDS011;64266;48.798;44.756;2024-01-30T03:55:58;18.50;;;8.32;;
75667;SDS011;64266;48.798;44.756;2024-01-30T04:01:19;14.40;;;7.10;;
75667;SDS011;64266;48.798;44.756;2024-01-30T04:06:22;13.90;;;6.53;;
75667;SDS011;64266;48.798;44.756;2024-01-30T04:11:26;14.30;;;6.85;;
75667;SDS011;64266;48.798;44.756;2024-01-30T04:16:29;12.85;;;6.07;;
75667;SDS011;64266;48.798;44.756;2024-01-30T04:21:33;9.80;;;5.25;;
75667;SDS011;64266;48.798;44.756;2024-01-30T04:26:37;9.55;;;4.35;;
75667;SDS011;64266;48.798;44.756;2024-01-30T04:31:40;11.32;;;5.05;;
75667;SDS011;64266;48.798;44.756;2024-01-30T04:36:44;10.88;;;4.78;;
75667;SDS011;64266;48.798;44.756;2024-01-30T04:41:48;11.77;;;4.57;;
75667;SDS011;64266;48.798;44.756;2024-01-30T04:46:52;9.77;;;4.53;;
75667;SDS011;64266;48.798;44.756;2024-01-30T04:51:55;10.07;;;4.05;;
75667;SDS011;64266;48.798;44.756;2024-01-30T04:56:58;13.60;;;4.65;;
75667;SDS011;64266;48.798;44.756;2024-01-30T05:02:01;12.25;;;4.45;;
75667;SDS011;64266;48.798;44.756;2024-01-30T05:07:05;10.15;;;4.75;;
75667;SDS011;64266;48.798;44.756;2024-01-30T05:12:08;8.30;;;4.15;;
75667;SDS011;64266;48.798;44.756;2024-01-30T05:17:11;8.00;;;3.35;;
75667;SDS011;64266;48.798;44.756;2024-01-30T05:22:15;9.05;;;4.30;;
75667;SDS011;64266;48.798;44.756;2024-01-30T05:27:21;7.88;;;3.33;;
75667;SDS011;64266;48.798;44.756;2024-01-30T05:32:25;8.70;;;4.00;;
75667;SDS011;64266;48.798;44.756;2024-01-30T05:37:29;9.80;;;5.03;;
75667;SDS011;64266;48.798;44.756;2024-01-30T05:42:32;10.10;;;4.55;;
75667;SDS011;64266;48.798;44.756;2024-01-30T05:47:35;10.43;;;4.72;;
75667;SDS011;64266;48.798;44.756;2024-01-30T05:52:38;11.00;;;4.10;;
75667;SDS011;64266;48.798;44.756;2024-01-30T05:57:41;12.23;;;4.38;;
75667;SDS011;64266;48.798;44.756;2024-01-30T06:02:44;8.95;;;4.03;;
75667;SDS011;64266;48.798;44.756;2024-01-30T06:07:48;8.30;;;4.13;;
75667;SDS011;64266;48.798;44.756;2024-01-30T06:12:51;10.63;;;4.80;;
75667;SDS011;64266;48.798;44.756;2024-01-30T06:17:55;15.40;;;6.47;;
75667;SDS011;64266;48.798;44.756;2024-01-30T06:22:58;20.83;;;7.85;;
75667;SDS011;64266;48.798;44.756;2024-01-30T06:28:01;17.67;;;7.25;;
75667;SDS011;64266;48.798;44.756;2024-01-30T06:33:04;14.70;;;6.20;;
75667;SDS011;64266;48.798;44.756;2024-01-30T06:38:07;21.95;;;9.23;;
75667;SDS011;64266;48.798;44.756;2024-01-30T06:43:10;8.55;;;4.13;;
75667;SDS011;64266;48.798;44.756;2024-01-30T06:48:13;10.50;;;4.00;;
75667;SDS011;64266;48.798;44.756;2024-01-30T06:53:16;8.68;;;4.03;;
75667;SDS011;64266;48.798;44.756;2024-01-30T06:58:19;7.32;;;3.63;;
75667;SDS011;64266;48.798;44.756;2024-01-30T07:03:27;9.35;;;4.90;;
75667;SDS011;64266;48.798;44.756;2024-01-30T07:08:30;10.05;;;4.18;;
75667;SDS011;64266;48.798;44.756;2024-01-30T07:13:34;11.73;;;4.50;;
75667;SDS011;64266;48.798;44.756;2024-01-30T07:18:38;8.90;;;4.63;;
75667;SDS011;64266;48.798;44.756;2024-01-30T07:23:41;12.02;;;4.80;;
75667;SDS011;64266;48.798;44.756;2024-01-30T07:28:44;11.57;;;4.88;;
75667;SDS011;64266;48.798;44.756;2024-01-30T07:33:47;7.80;;;3.75;;
75667;SDS011;64266;48.798;44.756;2024-01-30T07:38:51;10.23;;;3.95;;
75667;SDS011;64266;48.798;44.756;2024-01-30T07:43:57;10.02;;;4.97;;
75667;SDS011;64266;48.798;44.756;2024-01-30T07:49:01;11.85;;;4.63;;
75667;SDS011;64266;48.798;44.756;2024-01-30T07:54:04;8.63;;;3.70;;
75667;SDS011;64266;48.798;44.756;2024-01-30T07:59:10;9.73;;;3.97;;
75667;SDS011;64266;48.798;44.756;2024-01-30T08:04:14;8.00;;;3.80;;
75667;SDS011;64266;48.798;44.756;2024-01-30T08:09:18;10.55;;;4.13;;
75667;SDS011;64266;48.798;44.756;2024-01-30T08:14:22;10.43;;;4.45;;
75667;SDS011;64266;48.798;44.756;2024-01-30T08:19:24;13.13;;;5.43;;
75667;SDS011;64266;48.798;44.756;2024-01-30T08:24:28;10.85;;;4.80;;
75667;SDS011;64266;48.798;44.756;2024-01-30T08:29:31;8.18;;;3.92;;
75667;SDS011;64266;48.798;44.756;2024-01-30T08:34:34;11.10;;;5.07;;
75667;SDS011;64266;48.798;44.756;2024-01-30T08:40:31;12.00;;;5.05;;
75667;SDS011;64266;48.798;44.756;2024-01-30T08:45:34;11.23;;;4.03;;
75667;SDS011;64266;48.798;44.756;2024-01-30T08:50:37;11.98;;;3.78;;
75667;SDS011;64266;48.798;44.756;2024-01-30T08:55:40;10.23;;;4.10;;
75667;SDS011;64266;48.798;44.756;2024-01-30T09:00:47;12.73;;;5.45;;
75667;SDS011;64266;48.798;44.756;2024-01-30T09:05:50;9.70;;;3.90;;
75667;SDS011;64266;48.798;44.756;2024-01-30T09:10:54;9.77;;;4.35;;
75667;SDS011;64266;48.798;44.756;2024-01-30T09:15:57;8.20;;;2.95;;
75667;SDS011;64266;48.798;44.756;2024-01-30T09:21:01;9.80;;;4.40;;
75667;SDS011;64266;48.798;44.756;2024-01-30T09:26:04;10.77;;;4.10;;
75667;SDS011;64266;48.798;44.756;2024-01-30T09:31:09;8.73;;;4.28;;
75667;SDS011;64266;48.798;44.756;2024-01-30T09:36:13;10.93;;;4.22;;
75667;SDS011;64266;48.798;44.756;2024-01-30T09:41:17;12.68;;;4.85;;
75667;SDS011;64266;48.798;44.756;2024-01-30T09:46:27;10.18;;;4.57;;
75667;SDS011;64266;48.798;44.756;2024-01-30T09:51:31;14.30;;;4.38;;
75667;SDS011;64266;48.798;44.756;2024-01-30T09:56:34;10.60;;;4.60;;
75667;SDS011;64266;48.798;44.756;2024-01-30T10:01:38;12.60;;;5.30;;
75667;SDS011;64266;48.798;44.756;2024-01-30T10:06:42;9.32;;;4.10;;
75667;SDS011;64266;48.798;44.756;2024-01-30T10:11:46;12.68;;;5.90;;
75667;SDS011;64266;48.798;44.756;2024-01-30T10:16:49;8.63;;;3.83;;
75667;SDS011;64266;48.798;44.756;2024-01-30T10:22:44;11.65;;;4.97;;
75667;SDS011;64266;48.798;44.756;2024-01-30T10:27:52;10.65;;;5.22;;
75667;SDS011;64266;48.798;44.756;2024-01-30T10:33:01;11.63;;;5.20;;
75667;SDS011;64266;48.798;44.756;2024-01-30T10:38:05;20.48;;;9.02;;
75667;SDS011;64266;48.798;44.756;2024-01-30T10:43:14;10.25;;;5.40;;
75667;SDS011;64266;48.798;44.756;2024-01-30T10:48:23;13.23;;;5.65;;
75667;SDS011;64266;48.798;44.756;2024-01-30T10:53:32;9.25;;;4.65;;
75667;SDS011;64266;48.798;44.756;2024-01-30T10:58:36;13.00;;;5.53;;
75667;SDS011;64266;48.798;44.756;2024-01-30T11:03:39;39.85;;;18.45;;
75667;SDS011;64266;48.798;44.756;2024-01-30T11:08:42;12.77;;;5.00;;
75667;SDS011;64266;48.798;44.756;2024-01-30T11:13:45;12.18;;;5.22;;
75667;SDS011;64266;48.798;44.756;2024-01-30T11:18:52;17.95;;;9.48;;
75667;SDS011;64266;48.798;44.756;2024-01-30T11:23:56;10.52;;;5.13;;
75667;SDS011;64266;48.798;44.756;2024-01-30T11:29:06;11.30;;;4.90;;
75667;SDS011;64266;48.798;44.756;2024-01-30T11:34:10;13.43;;;5.53;;
75667;SDS011;64266;48.798;44.756;2024-01-30T11:39:15;11.77;;;5.75;;
75667;SDS011;64266;48.798;44.756;2024-01-30T11:49:25;19.95;;;8.88;;
75667;SDS011;64266;48.798;44.756;2024-01-30T11:54:31;11.45;;;5.45;;
75667;SDS011;64266;48.798;44.756;2024-01-30T11:59:35;12.23;;;5.55;;
75667;SDS011;64266;48.798;44.756;2024-01-30T12:05:05;10.77;;;5.35;;
75667;SDS011;64266;48.798;44.756;2024-01-30T12:10:08;14.93;;;5.68;;
75667;SDS011;64266;48.798;44.756;2024-01-30T12:15:14;12.38;;;5.75;;
75667;SDS011;64266;48.798;44.756;2024-01-30T12:20:18;12.82;;;5.53;;
75667;SDS011;64266;48.798;44.756;2024-01-30T12:25:24;11.88;;;4.85;;
75667;SDS011;64266;48.798;44.756;2024-01-30T12:30:29;10.70;;;4.65;;
75667;SDS011;64266;48.798;44.756;2024-01-30T12:35:34;15.07;;;5.75;;
75667;SDS011;64266;48.798;44.756;2024-01-30T12:40:38;12.32;;;5.45;;
75667;SDS011;64266;48.798;44.756;2024-01-30T12:45:43;14.40;;;5.65;;
75667;SDS011;64266;48.798;44.756;2024-01-30T12:50:48;13.43;;;5.45;;
75667;SDS011;64266;48.798;44.756;2024-01-30T12:55:52;14.07;;;6.15;;
75667;SDS011;64266;48.798;44.756;2024-01-30T13:00:58;14.70;;;5.28;;
75667;SDS011;64266;48.798;44.756;2024-01-30T13:06:03;12.63;;;5.28;;
75667;SDS011;64266;48.798;44.756;2024-01-30T13:11:07;13.20;;;6.00;;
75667;SDS011;64266;48.798;44.756;2024-01-30T13:16:22;21.83;;;8.27;;
75667;SDS011;64266;48.798;44.756;2024-01-30T13:21:26;15.40;;;5.47;;
75667;SDS011;64266;48.798;44.756;2024-01-30T13:26:32;14.13;;;5.97;;
75667;SDS011;64266;48.798;44.756;2024-01-30T13:31:35;16.20;;;6.80;;
75667;SDS011;64266;48.798;44.756;2024-01-30T13:36:42;16.55;;;7.03;;
75667;SDS011;64266;48.798;44.756;2024-01-30T13:41:45;17.08;;;6.75;;
75667;SDS011;64266;48.798;44.756;2024-01-30T13:46:51;18.55;;;6.68;;
75667;SDS011;64266;48.798;44.756;2024-01-30T13:51:55;17.90;;;7.38;;
75667;SDS011;64266;48.798;44.756;2024-01-30T13:56:59;14.88;;;7.03;;
75667;SDS011;64266;48.798;44.756;2024-01-30T14:02:03;17.75;;;7.18;;
75667;SDS011;64266;48.798;44.756;2024-01-30T14:07:06;14.80;;;6.53;;
75667;SDS011;64266;48.798;44.756;2024-01-30T14:12:13;17.60;;;6.70;;
75667;SDS011;64266;48.798;44.756;2024-01-30T14:17:17;15.20;;;6.75;;
75667;SDS011;64266;48.798;44.756;2024-01-30T14:22:21;18.38;;;7.90;;
75667;SDS011;64266;48.798;44.756;2024-01-30T14:27:24;14.95;;;6.97;;
75667;SDS011;64266;48.798;44.756;2024-01-30T14:32:27;18.80;;;7.22;;
75667;SDS011;64266;48.798;44.756;2024-01-30T14:37:30;16.30;;;7.07;;
75667;SDS011;64266;48.798;44.756;2024-01-30T14:42:33;16.50;;;6.72;;
75667;SDS011;64266;48.798;44.756;2024-01-30T14:47:36;16.65;;;7.07;;
75667;SDS011;64266;48.798;44.756;2024-01-30T14:52:41;15.38;;;6.75;;
75667;SDS011;64266;48.798;44.756;2024-01-30T14:57:44;15.40;;;6.30;;
75667;SDS011;64266;48.798;44.756;2024-01-30T15:02:48;13.80;;;6.38;;
75667;SDS011;64266;48.798;44.756;2024-01-30T15:07:51;14.95;;;6.95;;
75667;SDS011;64266;48.798;44.756;2024-01-30T15:12:57;14.57;;;6.20;;
75667;SDS011;64266;48.798;44.756;2024-01-30T15:18:00;13.32;;;6.75;;
75667;SDS011;64266;48.798;44.756;2024-01-30T15:23:03;17.73;;;6.97;;
75667;SDS011;64266;48.798;44.756;2024-01-30T15:28:08;13.68;;;6.40;;
75667;SDS011;64266;48.798;44.756;2024-01-30T15:33:13;15.77;;;8.05;;
75667;SDS011;64266;48.798;44.756;2024-01-30T15:38:16;15.95;;;6.40;;
75667;SDS011;64266;48.798;44.756;2024-01-30T15:43:21;15.25;;;7.63;;
75667;SDS011;64266;48.798;44.756;2024-01-30T15:48:25;14.05;;;6.38;;
75667;SDS011;64266;48.798;44.756;2024-01-30T15:53:28;17.55;;;7.25;;
75667;SDS011;64266;48.798;44.756;2024-01-30T15:58:31;15.23;;;7.15;;
75667;SDS011;64266;48.798;44.756;2024-01-30T16:03:35;14.18;;;6.88;;
75667;SDS011;64266;48.798;44.756;2024-01-30T16:08:40;15.23;;;7.40;;
75667;SDS011;64266;48.798;44.756;2024-01-30T16:13:45;19.17;;;8.32;;
75667;SDS011;64266;48.798;44.756;2024-01-30T16:18:53;15.65;;;7.38;;
75667;SDS011;64266;48.798;44.756;2024-01-30T16:23:57;18.67;;;8.52;;
75667;SDS011;64266;48.798;44.756;2024-01-30T16:29:03;19.92;;;8.48;;
75667;SDS011;64266;48.798;44.756;2024-01-30T16:34:06;13.73;;;7.30;;
75667;SDS011;64266;48.798;44.756;2024-01-30T16:39:11;16.80;;;7.43;;
75667;SDS011;64266;48.798;44.756;2024-01-30T16:44:14;16.95;;;7.75;;
75667;SDS011;64266;48.798;44.756;2024-01-30T16:49:17;19.17;;;8.32;;
75667;SDS011;64266;48.798;44.756;2024-01-30T16:54:22;17.67;;;8.07;;
75667;SDS011;64266;48.798;44.756;2024-01-30T16:59:25;17.10;;;7.35;;
75667;SDS011;64266;48.798;44.756;2024-01-30T17:04:28;20.83;;;7.85;;
75667;SDS011;64266;48.798;44.756;2024-01-30T17:09:31;17.83;;;7.60;;
75667;SDS011;64266;48.798;44.756;2024-01-30T17:14:34;15.30;;;7.05;;
75667;SDS011;64266;48.798;44.756;2024-01-30T17:19:41;14.23;;;6.20;;
75667;SDS011;64266;48.798;44.756;2024-01-30T17:24:45;18.48;;;8.45;;
75667;SDS011;64266;48.798;44.756;2024-01-30T17:29:52;18.27;;;8.27;;
75667;SDS011;64266;48.798;44.756;2024-01-30T17:34:55;16.52;;;7.10;;
75667;SDS011;64266;48.798;44.756;2024-01-30T17:39:58;15.70;;;7.30;;
75667;SDS011;64266;48.798;44.756;2024-01-30T17:45:04;15.63;;;7.13;;
75667;SDS011;64266;48.798;44.756;2024-01-30T17:50:08;15.23;;;7.15;;
75667;SDS011;64266;48.798;44.756;2024-01-30T17:55:12;19.35;;;8.00;;
75667;SDS011;64266;48.798;44.756;2024-01-30T18:00:17;15.45;;;6.97;;
75667;SDS011;64266;48.798;44.756;2024-01-30T18:05:21;19.10;;;8.10;;
75667;SDS011;64266;48.798;44.756;2024-01-30T18:10:26;17.50;;;7.68;;
75667;SDS011;64266;48.798;44.756;2024-01-30T18:15:30;17.20;;;7.45;;
75667;SDS011;64266;48.798;44.756;2024-01-30T18:20:38;18.15;;;8.18;;
75667;SDS011;64266;48.798;44.756;2024-01-30T18:25:43;17.70;;;8.13;;
75667;SDS011;64266;48.798;44.756;2024-01-30T18:30:47;17.10;;;7.40;;
75667;SDS011;64266;48.798;44.756;2024-01-30T18:35:50;18.52;;;7.47;;
75667;SDS011;64266;48.798;44.756;2024-01-30T18:40:53;16.42;;;6.60;;
75667;SDS011;64266;48.798;44.756;2024-01-30T18:45:57;16.70;;;7.82;;
75667;SDS011;64266;48.798;44.756;2024-01-30T18:51:01;17.83;;;7.93;;
75667;SDS011;64266;48.798;44.756;2024-01-30T18:56:06;16.17;;;7.68;;
75667;SDS011;64266;48.798;44.756;2024-01-30T19:01:10;16.70;;;8.00;;
75667;SDS011;64266;48.798;44.756;2024-01-30T19:06:15;17.48;;;7.88;;
75667;SDS011;64266;48.798;44.756;2024-01-30T19:11:19;18.63;;;8.25;;
75667;SDS011;64266;48.798;44.756;2024-01-30T19:16:23;18.05;;;8.13;;
75667;SDS011;64266;48.798;44.756;2024-01-30T19:21:26;15.85;;;7.43;;
75667;SDS011;64266;48.798;44.756;2024-01-30T19:26:29;15.15;;;7.70;;
75667;SDS011;64266;48.798;44.756;2024-01-30T19:31:32;15.55;;;7.65;;
75667;SDS011;64266;48.798;44.756;2024-01-30T19:36:35;16.10;;;7.70;;
75667;SDS011;64266;48.798;44.756;2024-01-30T19:41:40;17.75;;;7.88;;
75667;SDS011;64266;48.798;44.756;2024-01-30T19:46:46;17.23;;;8.07;;
75667;SDS011;64266;48.798;44.756;2024-01-30T19:51:49;16.27;;;8.43;;
75667;SDS011;64266;48.798;44.756;2024-01-30T19:56:52;18.90;;;9.20;;
75667;SDS011;64266;48.798;44.756;2024-01-30T20:01:56;18.60;;;8.68;;
75667;SDS011;64266;48.798;44.756;2024-01-30T20:07:00;19.00;;;8.95;;
75667;SDS011;64266;48.798;44.756;2024-01-30T20:12:04;19.63;;;9.05;;
75667;SDS011;64266;48.798;44.756;2024-01-30T20:17:07;17.95;;;8.27;;
75667;SDS011;64266;48.798;44.756;2024-01-30T20:22:10;17.48;;;8.90;;
75667;SDS011;64266;48.798;44.756;2024-01-30T20:27:14;20.63;;;9.88;;
75667;SDS011;64266;48.798;44.756;2024-01-30T20:32:16;18.42;;;8.02;;
75667;SDS011;64266;48.798;44.756;2024-01-30T20:37:20;17.67;;;9.00;;
75667;SDS011;64266;48.798;44.756;2024-01-30T20:42:23;17.17;;;8.65;;
75667;SDS011;64266;48.798;44.756;2024-01-30T20:47:26;19.25;;;8.57;;
75667;SDS011;64266;48.798;44.756;2024-01-30T20:52:31;16.85;;;8.20;;
75667;SDS011;64266;48.798;44.756;2024-01-30T20:57:35;18.67;;;7.93;;
75667;SDS011;64266;48.798;44.756;2024-01-30T21:02:39;18.52;;;8.82;;
75667;SDS011;64266;48.798;44.756;2024-01-30T21:07:42;15.27;;;8.07;;
75667;SDS011;64266;48.798;44.756;2024-01-30T21:12:45;17.50;;;8.00;;
75667;SDS011;64266;48.798;44.756;2024-01-30T21:17:48;15.40;;;7.03;;
75667;SDS011;64266;48.798;44.756;2024-01-30T21:22:51;16.00;;;7.15;;
75667;SDS011;64266;48.798;44.756;2024-01-30T21:27:55;17.42;;;7.20;;
75667;SDS011;64266;48.798;44.756;2024-01-30T21:32:59;18.63;;;8.25;;
75667;SDS011;64266;48.798;44.756;2024-01-30T21:38:02;15.85;;;7.78;;
75667;SDS011;64266;48.798;44.756;2024-01-30T21:43:06;18.05;;;8.18;;
75667;SDS011;64266;48.798;44.756;2024-01-30T21:48:10;18.30;;;8.73;;
75667;SDS011;64266;48.798;44.756;2024-01-30T21:53:14;19.45;;;9.02;;
75667;SDS011;64266;48.798;44.756;2024-01-30T21:58:17;20.73;;;8.57;;
75667;SDS011;64266;48.798;44.756;2024-01-30T22:03:21;17.85;;;8.18;;
75667;SDS011;64266;48.798;44.756;2024-01-30T22:08:25;17.15;;;7.75;;
75667;SDS011;64266;48.798;44.756;2024-01-30T22:13:28;15.80;;;7.15;;
75667;SDS011;64266;48.798;44.756;2024-01-30T22:18:32;17.08;;;7.40;;
75667;SDS011;64266;48.798;44.756;2024-01-30T22:23:35;16.95;;;8.57;;
75667;SDS011;64266;48.798;44.756;2024-01-30T22:28:38;16.30;;;7.82;;
75667;SDS011;64266;48.798;44.756;2024-01-30T22:33:42;17.33;;;8.38;;
75667;SDS011;64266;48.798;44.756;2024-01-30T22:38:44;18.08;;;7.97;;
75667;SDS011;64266;48.798;44.756;2024-01-30T22:43:47;15.88;;;7.75;;
75667;SDS011;64266;48.798;44.756;2024-01-30T22:48:51;18.60;;;8.40;;
75667;SDS011;64266;48.798;44.756;2024-01-30T22:53:54;17.70;;;8.07;;
75667;SDS011;64266;48.798;44.756;2024-01-30T22:58:57;19.20;;;8.52;;
75667;SDS011;64266;48.798;44.756;2024-01-30T23:04:00;16.17;;;8.20;;
75667;SDS011;64266;48.798;44.756;2024-01-30T23:09:04;18.48;;;8.75;;
75667;SDS011;64266;48.798;44.756;2024-01-30T23:14:07;18.63;;;8.25;;
75667;SDS011;64266;48.798;44.756;2024-01-30T23:19:10;22.05;;;9.57;;
75667;SDS011;64266;48.798;44.756;2024-01-30T23:24:13;19.80;;;8.32;;
75667;SDS011;64266;48.798;44.756;2024-01-30T23:29:18;19.02;;;8.52;;
75667;SDS011;64266;48.798;44.756;2024-01-30T23:34:21;16.35;;;7.93;;
75667;SDS011;64266;48.798;44.756;2024-01-30T23:39:24;19.75;;;8.63;;
75667;SDS011;64266;48.798;44.756;2024-01-30T23:44:28;21.27;;;9.65;;
75667;SDS011;64266;48.798;44.756;2024-01-30T23:49:31;17.98;;;8.50;;
75667;SDS011;64266;48.798;44.756;2024-01-30T23:54:34;20.15;;;8.55;;
75667;SDS011;64266;48.798;44.756;2024-01-30T23:59:38;21.08;;;9.40;;
